Aérodrome :
LOGIN :

S'inscrire | Disclaimer

   EN    FR    IT 

 










Légende :    VFR   VFR Marginal   IFR   IFR Intensif   IFR Très Intensif
Visi : 
Plafond : 
>= 8 km
>= 3000ft
5 à 8 km
1000 à 3000 ft
1500m à 5 km
500 à 1000 ft
800 à 1500m
200 à 500 ft
< 800m
< 200 ft
Symboles :   Orages  Brouillard  Fortes neiges  Fortes précipitations  Vent > 20 kt
SIGMETs :   Divers  Orages  Givrage  Turbulence  Onde Orograph.  Cendres Volcan.






- Altitude de l'aérodrome : 355 ft
- Code IATA : VBS


LIPO - Montichiari - Brescia

DERNIER METAR :
  • 272020Z AUTO 30002KT //// // FEW067/// BKN089/// 05/04 Q1022

METARs EXPIRÉS :
  • 271950Z AUTO 12001KT //// // SCT062/// BKN088/// 05/05 Q1022
  • 271920Z AUTO VRB01KT //// // SCT062/// BKN089/// 05/05 Q1022
  • 271850Z AUTO 02002KT //// // FEW061/// BKN086/// 05/05 Q1022
  • 271820Z AUTO VRB01KT //// // BKN084 05/05 Q1022
  • 271750Z AUTO VRB01KT //// // FEW063/// BKN085/// 06/05 Q1022

TAF TAF LIPO
Valide du 27 à 18h jusqu'au 28 à 18h UTC


271700Z 2718/2818 VRB03KT 4000 BR NSC
BECMG 2721/2723 0600 FG BKN010
BECMG 2808/2810 4000 BR SCT030



MET'MAP, la Météo Aéronautique d'un coup d'oeil ! - Copyright ORBIFLY Décembre 2007 - Disclaimer

ORBIFLY MET'MAP TEAM :

Programmation & Développement : Alexandra Zaïnal
Sur une idée originale de : Baudouin d'Aumeries
Assistance à la programmation : Marc-Olivier Méhu
Soutien technique & logistique : Manuel Goepfert

Contact : metmap@orbifly.com




SOURCES & CREDITS :

   NOAA